sensor_id;sensor_type;location;lat;lon;timestamp;temperature;humidity
25188;DHT22;13141;50.414;8.050;2023-03-14T00:01:45;12.60;99.90
25188;DHT22;13141;50.414;8.050;2023-03-14T00:04:10;12.60;99.90
25188;DHT22;13141;50.414;8.050;2023-03-14T00:06:36;12.60;99.90
25188;DHT22;13141;50.414;8.050;2023-03-14T00:09:01;12.60;99.90
25188;DHT22;13141;50.414;8.050;2023-03-14T00:11:28;12.70;99.90
25188;DHT22;13141;50.414;8.050;2023-03-14T00:13:54;12.70;99.90
25188;DHT22;13141;50.414;8.050;2023-03-14T00:16:20;12.70;99.90
25188;DHT22;13141;50.414;8.050;2023-03-14T00:18:46;12.70;99.90
25188;DHT22;13141;50.414;8.050;2023-03-14T00:21:12;12.70;99.90
25188;DHT22;13141;50.414;8.050;2023-03-14T00:23:39;12.60;99.90
25188;DHT22;13141;50.414;8.050;2023-03-14T00:26:07;12.70;99.90
25188;DHT22;13141;50.414;8.050;2023-03-14T00:28:34;12.80;99.90
25188;DHT22;13141;50.414;8.050;2023-03-14T00:31:02;12.70;99.90
25188;DHT22;13141;50.414;8.050;2023-03-14T00:33:28;12.70;99.90
25188;DHT22;13141;50.414;8.050;2023-03-14T00:35:55;12.70;99.90
25188;DHT22;13141;50.414;8.050;2023-03-14T00:38:20;12.60;99.90
25188;DHT22;13141;50.414;8.050;2023-03-14T00:40:46;12.70;99.90
25188;DHT22;13141;50.414;8.050;2023-03-14T00:43:12;12.60;99.90
25188;DHT22;13141;50.414;8.050;2023-03-14T00:45:39;12.60;99.90
25188;DHT22;13141;50.414;8.050;2023-03-14T00:48:04;12.60;99.90
25188;DHT22;13141;50.414;8.050;2023-03-14T00:50:30;12.70;99.90
25188;DHT22;13141;50.414;8.050;2023-03-14T00:52:55;12.40;99.90
25188;DHT22;13141;50.414;8.050;2023-03-14T00:55:21;12.70;99.90
25188;DHT22;13141;50.414;8.050;2023-03-14T00:57:46;12.60;99.90
25188;DHT22;13141;50.414;8.050;2023-03-14T01:00:13;12.60;99.90
25188;DHT22;13141;50.414;8.050;2023-03-14T01:02:40;12.60;99.90
25188;DHT22;13141;50.414;8.050;2023-03-14T01:05:06;12.70;99.90
25188;DHT22;13141;50.414;8.050;2023-03-14T01:07:32;12.70;99.90
25188;DHT22;13141;50.414;8.050;2023-03-14T01:09:58;12.70;99.90
25188;DHT22;13141;50.414;8.050;2023-03-14T01:12:23;12.70;99.90
25188;DHT22;13141;50.414;8.050;2023-03-14T01:14:49;12.60;99.90
25188;DHT22;13141;50.414;8.050;2023-03-14T01:17:14;12.40;99.90
25188;DHT22;13141;50.414;8.050;2023-03-14T01:19:41;12.40;99.90
25188;DHT22;13141;50.414;8.050;2023-03-14T01:22:08;12.20;99.90
25188;DHT22;13141;50.414;8.050;2023-03-14T01:24:34;12.20;99.90
25188;DHT22;13141;50.414;8.050;2023-03-14T01:26:59;12.10;99.90
25188;DHT22;13141;50.414;8.050;2023-03-14T01:29:25;12.10;99.90
25188;DHT22;13141;50.414;8.050;2023-03-14T01:31:51;12.00;99.90
25188;DHT22;13141;50.414;8.050;2023-03-14T01:34:16;12.00;99.90
25188;DHT22;13141;50.414;8.050;2023-03-14T01:36:43;12.00;99.90
25188;DHT22;13141;50.414;8.050;2023-03-14T01:39:09;11.90;99.90
25188;DHT22;13141;50.414;8.050;2023-03-14T01:41:35;11.90;99.90
25188;DHT22;13141;50.414;8.050;2023-03-14T01:44:00;11.90;99.90
25188;DHT22;13141;50.414;8.050;2023-03-14T01:46:32;12.00;99.90
25188;DHT22;13141;50.414;8.050;2023-03-14T01:49:13;12.00;99.90
25188;DHT22;13141;50.414;8.050;2023-03-14T01:51:45;12.00;99.90
25188;DHT22;13141;50.414;8.050;2023-03-14T01:54:15;12.10;99.90
25188;DHT22;13141;50.414;8.050;2023-03-14T01:56:44;12.10;99.90
25188;DHT22;13141;50.414;8.050;2023-03-14T01:59:11;12.10;99.90
25188;DHT22;13141;50.414;8.050;2023-03-14T02:01:38;12.20;99.90
25188;DHT22;13141;50.414;8.050;2023-03-14T02:04:07;12.20;99.90
25188;DHT22;13141;50.414;8.050;2023-03-14T02:06:40;12.20;99.90
25188;DHT22;13141;50.414;8.050;2023-03-14T02:09:08;12.30;99.90
25188;DHT22;13141;50.414;8.050;2023-03-14T02:11:33;12.20;99.90
25188;DHT22;13141;50.414;8.050;2023-03-14T02:13:59;12.30;99.90
25188;DHT22;13141;50.414;8.050;2023-03-14T02:16:26;12.30;99.90
25188;DHT22;13141;50.414;8.050;2023-03-14T02:18:52;12.20;99.90
25188;DHT22;13141;50.414;8.050;2023-03-14T02:21:22;12.50;99.90
25188;DHT22;13141;50.414;8.050;2023-03-14T02:23:57;12.30;99.90
25188;DHT22;13141;50.414;8.050;2023-03-14T02:26:28;12.40;99.90
25188;DHT22;13141;50.414;8.050;2023-03-14T02:28:58;12.40;99.90
25188;DHT22;13141;50.414;8.050;2023-03-14T02:31:23;12.50;99.90
25188;DHT22;13141;50.414;8.050;2023-03-14T02:33:50;12.50;99.90
25188;DHT22;13141;50.414;8.050;2023-03-14T02:36:17;12.40;99.90
25188;DHT22;13141;50.414;8.050;2023-03-14T02:38:47;12.50;99.90
25188;DHT22;13141;50.414;8.050;2023-03-14T02:41:15;12.70;99.90
25188;DHT22;13141;50.414;8.050;2023-03-14T02:43:40;12.50;99.90
25188;DHT22;13141;50.414;8.050;2023-03-14T02:46:10;12.30;99.90
25188;DHT22;13141;50.414;8.050;2023-03-14T02:48:41;12.30;99.90
25188;DHT22;13141;50.414;8.050;2023-03-14T02:51:08;12.20;99.90
25188;DHT22;13141;50.414;8.050;2023-03-14T02:53:35;12.20;99.90
25188;DHT22;13141;50.414;8.050;2023-03-14T02:56:01;12.20;99.90
25188;DHT22;13141;50.414;8.050;2023-03-14T02:58:28;12.20;99.90
25188;DHT22;13141;50.414;8.050;2023-03-14T03:00:54;12.10;99.90
25188;DHT22;13141;50.414;8.050;2023-03-14T03:03:21;12.10;99.90
25188;DHT22;13141;50.414;8.050;2023-03-14T03:05:48;12.10;99.90
25188;DHT22;13141;50.414;8.050;2023-03-14T03:08:14;12.10;99.90
25188;DHT22;13141;50.414;8.050;2023-03-14T03:10:40;12.10;99.90
25188;DHT22;13141;50.414;8.050;2023-03-14T03:13:05;12.10;99.90
25188;DHT22;13141;50.414;8.050;2023-03-14T03:15:31;12.10;99.90
25188;DHT22;13141;50.414;8.050;2023-03-14T03:17:56;12.00;99.90
25188;DHT22;13141;50.414;8.050;2023-03-14T03:20:23;12.00;99.90
25188;DHT22;13141;50.414;8.050;2023-03-14T03:22:49;11.90;99.90
25188;DHT22;13141;50.414;8.050;2023-03-14T03:25:15;11.90;99.90
25188;DHT22;13141;50.414;8.050;2023-03-14T03:27:41;11.90;99.90
25188;DHT22;13141;50.414;8.050;2023-03-14T03:30:07;11.80;99.90
25188;DHT22;13141;50.414;8.050;2023-03-14T03:32:33;11.90;99.90
25188;DHT22;13141;50.414;8.050;2023-03-14T03:34:59;11.80;99.90
25188;DHT22;13141;50.414;8.050;2023-03-14T03:37:26;11.70;99.90
25188;DHT22;13141;50.414;8.050;2023-03-14T03:39:51;11.70;99.90
25188;DHT22;13141;50.414;8.050;2023-03-14T03:42:17;11.70;99.90
25188;DHT22;13141;50.414;8.050;2023-03-14T03:44:43;11.70;99.90
25188;DHT22;13141;50.414;8.050;2023-03-14T03:47:08;11.60;99.90
25188;DHT22;13141;50.414;8.050;2023-03-14T03:49:34;11.60;99.90
25188;DHT22;13141;50.414;8.050;2023-03-14T03:52:00;11.60;99.90
25188;DHT22;13141;50.414;8.050;2023-03-14T03:54:26;11.70;99.90
25188;DHT22;13141;50.414;8.050;2023-03-14T03:56:52;11.70;99.90
25188;DHT22;13141;50.414;8.050;2023-03-14T03:59:18;11.70;99.90
25188;DHT22;13141;50.414;8.050;2023-03-14T04:01:43;11.70;99.90
25188;DHT22;13141;50.414;8.050;2023-03-14T04:04:09;11.70;99.90
25188;DHT22;13141;50.414;8.050;2023-03-14T04:06:35;11.70;99.90
25188;DHT22;13141;50.414;8.050;2023-03-14T04:09:02;11.70;99.90
25188;DHT22;13141;50.414;8.050;2023-03-14T04:11:29;11.80;99.90
25188;DHT22;13141;50.414;8.050;2023-03-14T04:13:54;11.80;99.90
25188;DHT22;13141;50.414;8.050;2023-03-14T04:16:24;11.90;99.90
25188;DHT22;13141;50.414;8.050;2023-03-14T04:18:50;11.90;99.90
25188;DHT22;13141;50.414;8.050;2023-03-14T04:21:16;11.80;99.90
25188;DHT22;13141;50.414;8.050;2023-03-14T04:23:42;11.80;99.90
25188;DHT22;13141;50.414;8.050;2023-03-14T04:26:07;11.80;99.90
25188;DHT22;13141;50.414;8.050;2023-03-14T04:28:34;11.80;99.90
25188;DHT22;13141;50.414;8.050;2023-03-14T04:31:06;11.90;99.90
25188;DHT22;13141;50.414;8.050;2023-03-14T04:33:32;11.90;99.90
25188;DHT22;13141;50.414;8.050;2023-03-14T04:35:57;11.90;99.90
25188;DHT22;13141;50.414;8.050;2023-03-14T04:38:23;11.90;99.90
25188;DHT22;13141;50.414;8.050;2023-03-14T04:40:49;11.90;99.90
25188;DHT22;13141;50.414;8.050;2023-03-14T04:43:14;12.00;99.90
25188;DHT22;13141;50.414;8.050;2023-03-14T04:45:42;11.90;99.90
25188;DHT22;13141;50.414;8.050;2023-03-14T04:48:08;11.90;99.90
25188;DHT22;13141;50.414;8.050;2023-03-14T04:50:34;11.80;99.90
25188;DHT22;13141;50.414;8.050;2023-03-14T04:52:59;11.80;99.90
25188;DHT22;13141;50.414;8.050;2023-03-14T04:55:25;11.90;99.90
25188;DHT22;13141;50.414;8.050;2023-03-14T04:57:50;11.80;99.90
25188;DHT22;13141;50.414;8.050;2023-03-14T05:00:17;11.80;99.90
25188;DHT22;13141;50.414;8.050;2023-03-14T05:02:44;11.80;99.90
25188;DHT22;13141;50.414;8.050;2023-03-14T05:05:10;11.80;99.90
25188;DHT22;13141;50.414;8.050;2023-03-14T05:07:36;11.80;99.90
25188;DHT22;13141;50.414;8.050;2023-03-14T05:10:01;11.80;99.90
25188;DHT22;13141;50.414;8.050;2023-03-14T05:12:27;11.80;99.90
25188;DHT22;13141;50.414;8.050;2023-03-14T05:14:52;11.80;99.90
25188;DHT22;13141;50.414;8.050;2023-03-14T05:17:18;11.90;99.90
25188;DHT22;13141;50.414;8.050;2023-03-14T05:19:45;11.80;99.90
25188;DHT22;13141;50.414;8.050;2023-03-14T05:22:15;11.90;99.90
25188;DHT22;13141;50.414;8.050;2023-03-14T05:24:40;11.90;99.90
25188;DHT22;13141;50.414;8.050;2023-03-14T05:27:06;11.90;99.90
25188;DHT22;13141;50.414;8.050;2023-03-14T05:29:32;11.80;99.90
25188;DHT22;13141;50.414;8.050;2023-03-14T05:31:57;11.80;99.90
25188;DHT22;13141;50.414;8.050;2023-03-14T05:34:23;11.80;99.90
25188;DHT22;13141;50.414;8.050;2023-03-14T05:36:50;11.70;99.90
25188;DHT22;13141;50.414;8.050;2023-03-14T05:39:15;11.80;99.90
25188;DHT22;13141;50.414;8.050;2023-03-14T05:41:41;11.70;99.90
25188;DHT22;13141;50.414;8.050;2023-03-14T05:44:08;11.70;99.90
25188;DHT22;13141;50.414;8.050;2023-03-14T05:46:33;11.90;99.90
25188;DHT22;13141;50.414;8.050;2023-03-14T05:48:59;11.80;99.90
25188;DHT22;13141;50.414;8.050;2023-03-14T05:51:25;11.90;99.90
25188;DHT22;13141;50.414;8.050;2023-03-14T05:53:52;11.80;99.90
25188;DHT22;13141;50.414;8.050;2023-03-14T05:56:18;11.70;99.90
25188;DHT22;13141;50.414;8.050;2023-03-14T05:58:43;11.70;99.90
25188;DHT22;13141;50.414;8.050;2023-03-14T06:01:10;11.50;99.90
25188;DHT22;13141;50.414;8.050;2023-03-14T06:03:36;11.60;99.90
25188;DHT22;13141;50.414;8.050;2023-03-14T06:06:02;11.50;99.90
25188;DHT22;13141;50.414;8.050;2023-03-14T06:08:28;11.50;99.90
25188;DHT22;13141;50.414;8.050;2023-03-14T06:10:56;11.50;99.90
25188;DHT22;13141;50.414;8.050;2023-03-14T06:13:22;11.50;99.90
25188;DHT22;13141;50.414;8.050;2023-03-14T06:15:48;11.40;99.90
25188;DHT22;13141;50.414;8.050;2023-03-14T06:18:13;11.40;99.90
25188;DHT22;13141;50.414;8.050;2023-03-14T06:20:39;11.40;99.90
25188;DHT22;13141;50.414;8.050;2023-03-14T06:23:05;11.50;99.90
25188;DHT22;13141;50.414;8.050;2023-03-14T06:25:31;11.50;99.90
25188;DHT22;13141;50.414;8.050;2023-03-14T06:27:59;11.50;99.90
25188;DHT22;13141;50.414;8.050;2023-03-14T06:30:24;11.50;99.90
25188;DHT22;13141;50.414;8.050;2023-03-14T06:32:50;11.50;99.90
25188;DHT22;13141;50.414;8.050;2023-03-14T06:35:16;11.40;99.90
25188;DHT22;13141;50.414;8.050;2023-03-14T06:37:42;11.40;99.90
25188;DHT22;13141;50.414;8.050;2023-03-14T06:40:09;11.50;99.90
25188;DHT22;13141;50.414;8.050;2023-03-14T06:42:34;11.50;99.90
25188;DHT22;13141;50.414;8.050;2023-03-14T06:45:02;11.40;99.90
25188;DHT22;13141;50.414;8.050;2023-03-14T06:47:28;11.50;99.90
25188;DHT22;13141;50.414;8.050;2023-03-14T06:49:54;11.50;99.90
25188;DHT22;13141;50.414;8.050;2023-03-14T06:52:19;11.50;99.90
25188;DHT22;13141;50.414;8.050;2023-03-14T06:54:45;11.60;99.90
25188;DHT22;13141;50.414;8.050;2023-03-14T06:57:10;11.60;99.90
25188;DHT22;13141;50.414;8.050;2023-03-14T06:59:36;11.70;99.90
25188;DHT22;13141;50.414;8.050;2023-03-14T07:02:03;11.70;99.90
25188;DHT22;13141;50.414;8.050;2023-03-14T07:04:28;11.70;99.90
25188;DHT22;13141;50.414;8.050;2023-03-14T07:06:54;11.70;99.90
25188;DHT22;13141;50.414;8.050;2023-03-14T07:09:19;11.60;99.90
25188;DHT22;13141;50.414;8.050;2023-03-14T07:11:45;11.70;99.90
25188;DHT22;13141;50.414;8.050;2023-03-14T07:14:11;11.90;99.90
25188;DHT22;13141;50.414;8.050;2023-03-14T07:16:37;11.90;99.90
25188;DHT22;13141;50.414;8.050;2023-03-14T07:19:04;11.90;99.90
25188;DHT22;13141;50.414;8.050;2023-03-14T07:21:29;11.90;99.90
25188;DHT22;13141;50.414;8.050;2023-03-14T07:23:55;11.80;99.90
25188;DHT22;13141;50.414;8.050;2023-03-14T07:26:21;11.80;99.90
25188;DHT22;13141;50.414;8.050;2023-03-14T07:28:46;11.80;99.90
25188;DHT22;13141;50.414;8.050;2023-03-14T07:31:12;11.70;99.90
25188;DHT22;13141;50.414;8.050;2023-03-14T07:33:38;11.70;99.90
25188;DHT22;13141;50.414;8.050;2023-03-14T07:36:06;11.90;99.90
25188;DHT22;13141;50.414;8.050;2023-03-14T07:38:31;12.00;99.90
25188;DHT22;13141;50.414;8.050;2023-03-14T07:41:00;11.90;99.90
25188;DHT22;13141;50.414;8.050;2023-03-14T07:43:26;11.90;99.90
25188;DHT22;13141;50.414;8.050;2023-03-14T07:45:51;11.90;99.90
25188;DHT22;13141;50.414;8.050;2023-03-14T07:48:17;11.90;99.90
25188;DHT22;13141;50.414;8.050;2023-03-14T07:50:43;12.10;99.90
25188;DHT22;13141;50.414;8.050;2023-03-14T07:53:10;12.10;99.90
25188;DHT22;13141;50.414;8.050;2023-03-14T07:55:35;12.10;99.90
25188;DHT22;13141;50.414;8.050;2023-03-14T07:58:01;12.10;99.90
25188;DHT22;13141;50.414;8.050;2023-03-14T08:00:27;12.20;99.90
25188;DHT22;13141;50.414;8.050;2023-03-14T08:02:52;12.10;99.90
25188;DHT22;13141;50.414;8.050;2023-03-14T08:05:18;12.20;99.90
25188;DHT22;13141;50.414;8.050;2023-03-14T08:07:43;12.30;99.90
25188;DHT22;13141;50.414;8.050;2023-03-14T08:10:11;12.40;99.90
25188;DHT22;13141;50.414;8.050;2023-03-14T08:12:36;12.50;99.90
25188;DHT22;13141;50.414;8.050;2023-03-14T08:15:02;12.50;99.90
25188;DHT22;13141;50.414;8.050;2023-03-14T08:17:28;12.70;99.90
25188;DHT22;13141;50.414;8.050;2023-03-14T08:19:53;12.70;99.90
25188;DHT22;13141;50.414;8.050;2023-03-14T08:22:19;12.70;99.90
25188;DHT22;13141;50.414;8.050;2023-03-14T08:24:44;12.90;99.90
25188;DHT22;13141;50.414;8.050;2023-03-14T08:27:11;12.90;99.90
25188;DHT22;13141;50.414;8.050;2023-03-14T08:29:37;12.90;99.90
25188;DHT22;13141;50.414;8.050;2023-03-14T08:32:03;13.00;99.90
25188;DHT22;13141;50.414;8.050;2023-03-14T08:34:28;13.00;99.90
25188;DHT22;13141;50.414;8.050;2023-03-14T08:36:54;13.10;99.90
25188;DHT22;13141;50.414;8.050;2023-03-14T08:39:19;13.10;99.90
25188;DHT22;13141;50.414;8.050;2023-03-14T08:41:45;13.00;99.90
25188;DHT22;13141;50.414;8.050;2023-03-14T08:44:13;13.00;99.90
25188;DHT22;13141;50.414;8.050;2023-03-14T08:46:38;13.00;99.90
25188;DHT22;13141;50.414;8.050;2023-03-14T08:49:04;13.00;99.90
25188;DHT22;13141;50.414;8.050;2023-03-14T08:51:29;13.10;99.90
25188;DHT22;13141;50.414;8.050;2023-03-14T08:53:55;13.30;99.90
25188;DHT22;13141;50.414;8.050;2023-03-14T08:56:21;13.30;99.90
25188;DHT22;13141;50.414;8.050;2023-03-14T08:58:46;12.90;99.90
25188;DHT22;13141;50.414;8.050;2023-03-14T09:01:14;13.10;99.90
25188;DHT22;13141;50.414;8.050;2023-03-14T09:03:39;13.10;99.90
25188;DHT22;13141;50.414;8.050;2023-03-14T09:06:07;13.10;99.90
25188;DHT22;13141;50.414;8.050;2023-03-14T09:08:32;13.00;99.90
25188;DHT22;13141;50.414;8.050;2023-03-14T09:10:58;13.10;99.90
25188;DHT22;13141;50.414;8.050;2023-03-14T09:13:24;12.90;99.90
25188;DHT22;13141;50.414;8.050;2023-03-14T09:15:51;12.90;99.90
25188;DHT22;13141;50.414;8.050;2023-03-14T09:18:17;13.10;99.90
25188;DHT22;13141;50.414;8.050;2023-03-14T09:20:43;13.20;99.90
25188;DHT22;13141;50.414;8.050;2023-03-14T09:23:09;13.20;99.90
25188;DHT22;13141;50.414;8.050;2023-03-14T09:25:34;13.40;99.90
25188;DHT22;13141;50.414;8.050;2023-03-14T09:28:00;13.40;99.90
25188;DHT22;13141;50.414;8.050;2023-03-14T09:30:25;13.40;99.90
25188;DHT22;13141;50.414;8.050;2023-03-14T09:32:51;13.40;99.90
25188;DHT22;13141;50.414;8.050;2023-03-14T09:35:18;13.30;99.90
25188;DHT22;13141;50.414;8.050;2023-03-14T09:37:44;13.30;99.90
25188;DHT22;13141;50.414;8.050;2023-03-14T09:40:12;13.30;99.90
25188;DHT22;13141;50.414;8.050;2023-03-14T09:42:38;13.40;99.90
25188;DHT22;13141;50.414;8.050;2023-03-14T09:45:10;13.40;99.90
25188;DHT22;13141;50.414;8.050;2023-03-14T09:47:38;13.40;99.90
25188;DHT22;13141;50.414;8.050;2023-03-14T09:50:10;13.40;99.90
25188;DHT22;13141;50.414;8.050;2023-03-14T09:52:39;13.50;99.90
25188;DHT22;13141;50.414;8.050;2023-03-14T09:55:13;13.50;99.90
25188;DHT22;13141;50.414;8.050;2023-03-14T09:57:39;13.50;99.90
25188;DHT22;13141;50.414;8.050;2023-03-14T10:00:13;13.50;99.90
25188;DHT22;13141;50.414;8.050;2023-03-14T10:02:40;13.40;99.90
25188;DHT22;13141;50.414;8.050;2023-03-14T10:05:14;13.50;99.90
25188;DHT22;13141;50.414;8.050;2023-03-14T10:07:41;13.50;99.90
25188;DHT22;13141;50.414;8.050;2023-03-14T10:10:10;13.50;99.90
25188;DHT22;13141;50.414;8.050;2023-03-14T10:12:37;13.50;99.90
25188;DHT22;13141;50.414;8.050;2023-03-14T10:15:06;13.30;99.90
25188;DHT22;13141;50.414;8.050;2023-03-14T10:17:38;13.30;99.90
25188;DHT22;13141;50.414;8.050;2023-03-14T10:20:05;13.10;99.90
25188;DHT22;13141;50.414;8.050;2023-03-14T10:22:31;13.10;99.90
25188;DHT22;13141;50.414;8.050;2023-03-14T10:25:03;13.00;99.90
25188;DHT22;13141;50.414;8.050;2023-03-14T10:27:30;12.90;99.90
25188;DHT22;13141;50.414;8.050;2023-03-14T10:29:58;12.90;99.90
25188;DHT22;13141;50.414;8.050;2023-03-14T10:32:31;12.90;99.90
25188;DHT22;13141;50.414;8.050;2023-03-14T10:35:07;13.00;99.90
25188;DHT22;13141;50.414;8.050;2023-03-14T10:37:34;12.90;99.90
25188;DHT22;13141;50.414;8.050;2023-03-14T10:40:02;12.90;99.90
25188;DHT22;13141;50.414;8.050;2023-03-14T10:42:29;12.90;99.90
25188;DHT22;13141;50.414;8.050;2023-03-14T10:44:57;12.90;99.90
25188;DHT22;13141;50.414;8.050;2023-03-14T10:47:26;12.90;99.90
25188;DHT22;13141;50.414;8.050;2023-03-14T10:49:52;13.00;99.90
25188;DHT22;13141;50.414;8.050;2023-03-14T10:52:22;12.80;99.90
25188;DHT22;13141;50.414;8.050;2023-03-14T10:54:49;12.80;99.90
25188;DHT22;13141;50.414;8.050;2023-03-14T10:57:21;12.70;99.90
25188;DHT22;13141;50.414;8.050;2023-03-14T10:59:47;12.70;99.90
25188;DHT22;13141;50.414;8.050;2023-03-14T11:02:26;12.70;99.90
25188;DHT22;13141;50.414;8.050;2023-03-14T11:04:59;12.80;99.90
25188;DHT22;13141;50.414;8.050;2023-03-14T11:07:29;12.90;99.90
25188;DHT22;13141;50.414;8.050;2023-03-14T11:10:02;12.90;99.90
25188;DHT22;13141;50.414;8.050;2023-03-14T11:12:40;12.80;99.90
25188;DHT22;13141;50.414;8.050;2023-03-14T11:15:15;12.80;99.90
25188;DHT22;13141;50.414;8.050;2023-03-14T11:17:48;12.60;99.90
25188;DHT22;13141;50.414;8.050;2023-03-14T11:20:28;12.30;99.90
25188;DHT22;13141;50.414;8.050;2023-03-14T11:23:01;12.20;99.90
25188;DHT22;13141;50.414;8.050;2023-03-14T11:25:33;11.90;99.90
25188;DHT22;13141;50.414;8.050;2023-03-14T11:28:09;11.70;99.90
25188;DHT22;13141;50.414;8.050;2023-03-14T11:30:44;11.60;99.90
25188;DHT22;13141;50.414;8.050;2023-03-14T11:33:15;11.40;99.90
25188;DHT22;13141;50.414;8.050;2023-03-14T11:35:47;11.40;99.90
25188;DHT22;13141;50.414;8.050;2023-03-14T11:38:22;11.20;99.90
25188;DHT22;13141;50.414;8.050;2023-03-14T11:40:51;11.20;99.90
25188;DHT22;13141;50.414;8.050;2023-03-14T11:43:24;11.00;99.90
25188;DHT22;13141;50.414;8.050;2023-03-14T11:45:51;11.00;99.90
25188;DHT22;13141;50.414;8.050;2023-03-14T11:48:28;10.90;99.90
25188;DHT22;13141;50.414;8.050;2023-03-14T11:50:57;10.80;99.90
25188;DHT22;13141;50.414;8.050;2023-03-14T11:53:39;10.80;99.90
25188;DHT22;13141;50.414;8.050;2023-03-14T11:56:11;10.70;99.90
25188;DHT22;13141;50.414;8.050;2023-03-14T11:58:47;10.60;99.90
25188;DHT22;13141;50.414;8.050;2023-03-14T12:01:17;10.60;99.90
25188;DHT22;13141;50.414;8.050;2023-03-14T12:03:52;10.60;99.90
25188;DHT22;13141;50.414;8.050;2023-03-14T12:06:23;10.70;99.90
25188;DHT22;13141;50.414;8.050;2023-03-14T12:08:50;10.60;99.90
25188;DHT22;13141;50.414;8.050;2023-03-14T12:11:21;10.70;99.90
25188;DHT22;13141;50.414;8.050;2023-03-14T12:13:51;10.90;99.90
25188;DHT22;13141;50.414;8.050;2023-03-14T12:16:30;11.10;99.90
25188;DHT22;13141;50.414;8.050;2023-03-14T12:18:57;11.10;99.90
25188;DHT22;13141;50.414;8.050;2023-03-14T12:21:46;11.30;99.90
25188;DHT22;13141;50.414;8.050;2023-03-14T12:24:18;11.20;99.90
25188;DHT22;13141;50.414;8.050;2023-03-14T12:26:49;11.20;99.90
25188;DHT22;13141;50.414;8.050;2023-03-14T12:29:17;11.10;99.90
25188;DHT22;13141;50.414;8.050;2023-03-14T12:31:44;11.10;99.90
25188;DHT22;13141;50.414;8.050;2023-03-14T12:34:30;11.00;99.90
25188;DHT22;13141;50.414;8.050;2023-03-14T12:37:05;11.20;99.90
25188;DHT22;13141;50.414;8.050;2023-03-14T12:39:37;11.40;99.90
25188;DHT22;13141;50.414;8.050;2023-03-14T12:42:09;11.90;99.90
25188;DHT22;13141;50.414;8.050;2023-03-14T12:44:46;11.90;99.90
25188;DHT22;13141;50.414;8.050;2023-03-14T12:47:48;11.80;99.90
25188;DHT22;13141;50.414;8.050;2023-03-14T12:50:20;11.80;99.90
25188;DHT22;13141;50.414;8.050;2023-03-14T12:52:58;11.50;99.90
25188;DHT22;13141;50.414;8.050;2023-03-14T12:55:31;11.40;99.90
25188;DHT22;13141;50.414;8.050;2023-03-14T12:58:03;11.30;99.90
25188;DHT22;13141;50.414;8.050;2023-03-14T13:00:33;11.50;99.90
25188;DHT22;13141;50.414;8.050;2023-03-14T13:03:02;11.50;99.90
25188;DHT22;13141;50.414;8.050;2023-03-14T13:05:51;11.50;99.90
25188;DHT22;13141;50.414;8.050;2023-03-14T13:08:37;11.60;99.90
25188;DHT22;13141;50.414;8.050;2023-03-14T13:11:05;11.70;99.90
25188;DHT22;13141;50.414;8.050;2023-03-14T13:13:34;11.80;99.90
25188;DHT22;13141;50.414;8.050;2023-03-14T13:16:02;11.90;99.90
25188;DHT22;13141;50.414;8.050;2023-03-14T13:18:33;12.20;99.90
25188;DHT22;13141;50.414;8.050;2023-03-14T13:21:02;12.80;99.90
25188;DHT22;13141;50.414;8.050;2023-03-14T13:23:30;13.00;99.90
25188;DHT22;13141;50.414;8.050;2023-03-14T13:25:56;12.70;99.90
25188;DHT22;13141;50.414;8.050;2023-03-14T13:28:23;12.30;99.90
25188;DHT22;13141;50.414;8.050;2023-03-14T13:30:59;11.80;99.90
25188;DHT22;13141;50.414;8.050;2023-03-14T13:33:27;11.50;99.90
25188;DHT22;13141;50.414;8.050;2023-03-14T13:35:57;11.40;99.90
25188;DHT22;13141;50.414;8.050;2023-03-14T13:38:25;11.10;99.90
25188;DHT22;13141;50.414;8.050;2023-03-14T13:40:53;10.80;99.90
25188;DHT22;13141;50.414;8.050;2023-03-14T13:43:23;10.60;99.90
25188;DHT22;13141;50.414;8.050;2023-03-14T13:45:52;10.60;99.90
25188;DHT22;13141;50.414;8.050;2023-03-14T13:48:19;10.60;99.90
25188;DHT22;13141;50.414;8.050;2023-03-14T13:50:51;11.20;99.90
25188;DHT22;13141;50.414;8.050;2023-03-14T13:53:18;11.50;99.90
25188;DHT22;13141;50.414;8.050;2023-03-14T13:55:43;11.50;99.90
25188;DHT22;13141;50.414;8.050;2023-03-14T13:58:19;11.10;99.90
25188;DHT22;13141;50.414;8.050;2023-03-14T14:01:03;11.00;99.90
25188;DHT22;13141;50.414;8.050;2023-03-14T14:03:32;10.80;99.90
25188;DHT22;13141;50.414;8.050;2023-03-14T14:05:59;10.60;99.90
25188;DHT22;13141;50.414;8.050;2023-03-14T14:08:25;10.60;99.90
25188;DHT22;13141;50.414;8.050;2023-03-14T14:10:55;10.40;99.90
25188;DHT22;13141;50.414;8.050;2023-03-14T14:13:24;10.80;99.90
25188;DHT22;13141;50.414;8.050;2023-03-14T14:15:52;10.40;99.90
25188;DHT22;13141;50.414;8.050;2023-03-14T14:18:19;10.50;99.90
25188;DHT22;13141;50.414;8.050;2023-03-14T14:20:47;10.60;99.90
25188;DHT22;13141;50.414;8.050;2023-03-14T14:23:17;10.60;99.90
25188;DHT22;13141;50.414;8.050;2023-03-14T14:25:44;10.60;99.90
25188;DHT22;13141;50.414;8.050;2023-03-14T14:28:20;9.90;99.90
25188;DHT22;13141;50.414;8.050;2023-03-14T14:31:03;10.40;99.90
25188;DHT22;13141;50.414;8.050;2023-03-14T14:33:30;10.20;99.90
25188;DHT22;13141;50.414;8.050;2023-03-14T14:36:03;10.20;99.90
25188;DHT22;13141;50.414;8.050;2023-03-14T14:38:30;10.20;99.90
25188;DHT22;13141;50.414;8.050;2023-03-14T14:41:00;10.10;99.90
25188;DHT22;13141;50.414;8.050;2023-03-14T14:43:28;10.00;99.90
25188;DHT22;13141;50.414;8.050;2023-03-14T14:45:56;10.00;99.90
25188;DHT22;13141;50.414;8.050;2023-03-14T14:48:23;9.70;99.90
25188;DHT22;13141;50.414;8.050;2023-03-14T14:50:58;9.50;99.90
25188;DHT22;13141;50.414;8.050;2023-03-14T14:53:29;9.40;99.90
25188;DHT22;13141;50.414;8.050;2023-03-14T14:55:58;9.20;99.90
25188;DHT22;13141;50.414;8.050;2023-03-14T14:58:26;9.40;99.90
25188;DHT22;13141;50.414;8.050;2023-03-14T15:00:54;9.10;99.90
25188;DHT22;13141;50.414;8.050;2023-03-14T15:03:21;9.00;99.90
25188;DHT22;13141;50.414;8.050;2023-03-14T15:05:46;8.90;99.90
25188;DHT22;13141;50.414;8.050;2023-03-14T15:08:12;8.90;99.90
25188;DHT22;13141;50.414;8.050;2023-03-14T15:10:39;8.90;99.90
25188;DHT22;13141;50.414;8.050;2023-03-14T15:13:05;8.90;99.90
25188;DHT22;13141;50.414;8.050;2023-03-14T15:15:31;8.80;99.90
25188;DHT22;13141;50.414;8.050;2023-03-14T15:17:57;8.80;99.90
25188;DHT22;13141;50.414;8.050;2023-03-14T15:20:22;8.80;99.90
25188;DHT22;13141;50.414;8.050;2023-03-14T15:22:48;8.80;99.90
25188;DHT22;13141;50.414;8.050;2023-03-14T15:25:14;8.80;99.90
25188;DHT22;13141;50.414;8.050;2023-03-14T15:27:41;8.80;99.90
25188;DHT22;13141;50.414;8.050;2023-03-14T15:30:10;8.70;99.90
25188;DHT22;13141;50.414;8.050;2023-03-14T15:32:35;8.70;99.90
25188;DHT22;13141;50.414;8.050;2023-03-14T15:35:01;8.70;99.90
25188;DHT22;13141;50.414;8.050;2023-03-14T15:37:27;8.70;99.90